createdAt,value
2023-05-11T00:00:47.605Z,1.6279
2023-05-11T00:01:55.609Z,1.3929
2023-05-11T00:03:03.864Z,1.5230
2023-05-11T00:04:12.060Z,1.4000
2023-05-11T00:05:19.833Z,1.5915
2023-05-11T00:06:28.070Z,1.3496
2023-05-11T00:07:35.900Z,1.3890
2023-05-11T00:08:43.946Z,1.4222
2023-05-11T00:09:52.083Z,1.5419
2023-05-11T00:11:00.154Z,1.4666
2023-05-11T00:12:07.992Z,1.1414
2023-05-11T00:13:16.079Z,1.1663
2023-05-11T00:14:24.127Z,1.3798
2023-05-11T00:15:32.350Z,1.5291
2023-05-11T00:16:40.448Z,1.5051
2023-05-11T00:17:48.457Z,1.3707
2023-05-11T00:18:56.559Z,1.3954
2023-05-11T00:20:04.526Z,1.2876
2023-05-11T00:21:12.648Z,1.3649
2023-05-11T00:22:20.810Z,1.4773
2023-05-11T00:23:28.699Z,1.4377
2023-05-11T00:24:36.788Z,1.2447
2023-05-11T00:25:44.895Z,1.4689
2023-05-11T00:26:52.777Z,1.2780
2023-05-11T00:28:00.819Z,1.3054
2023-05-11T00:29:08.860Z,1.3747
2023-05-11T00:30:17.387Z,1.2185
2023-05-11T00:31:25.174Z,1.3695
2023-05-11T00:32:33.181Z,1.1529
2023-05-11T00:33:41.258Z,1.3380
2023-05-11T00:34:49.350Z,1.2563
2023-05-11T00:35:57.602Z,1.1356
2023-05-11T00:37:05.445Z,1.2949
2023-05-11T00:38:13.518Z,1.2226
2023-05-11T00:39:21.661Z,1.2337
2023-05-11T00:40:29.582Z,1.1253
2023-05-11T00:41:37.535Z,1.1540
2023-05-11T00:42:45.566Z,1.2464
2023-05-11T00:43:53.610Z,1.2078
2023-05-11T00:45:01.814Z,1.2988
2023-05-11T00:46:10.094Z,1.2632
2023-05-11T00:47:17.951Z,1.2920
2023-05-11T00:48:25.842Z,1.2465
2023-05-11T00:49:34.014Z,1.2444
2023-05-11T00:50:42.110Z,1.1507
2023-05-11T00:51:50.159Z,1.2632
2023-05-11T00:52:58.229Z,1.1796
2023-05-11T00:54:06.245Z,1.0420
2023-05-11T00:55:14.313Z,1.0642
2023-05-11T00:56:22.263Z,1.2074
2023-05-11T00:57:30.275Z,1.1490
2023-05-11T00:58:38.401Z,1.3226
2023-05-11T00:59:46.497Z,1.1600
2023-05-11T01:00:54.600Z,1.0405
2023-05-11T01:02:02.726Z,1.1741
2023-05-11T01:03:10.749Z,1.0957
2023-05-11T01:04:18.746Z,1.2903
2023-05-11T01:05:26.769Z,1.3329
2023-05-11T01:06:34.826Z,1.1327
2023-05-11T01:07:42.969Z,1.1510
2023-05-11T01:08:50.957Z,1.2402
2023-05-11T01:09:58.994Z,1.2165
2023-05-11T01:11:06.984Z,1.3760
2023-05-11T01:12:15.038Z,1.2467
2023-05-11T01:13:23.038Z,1.2762
2023-05-11T01:14:31.234Z,1.0326
2023-05-11T01:15:39.292Z,1.1173
2023-05-11T01:16:47.493Z,1.2492
2023-05-11T01:17:55.474Z,1.2131
2023-05-11T01:19:03.598Z,1.1842
2023-05-11T01:20:11.765Z,1.1429
2023-05-11T01:21:19.592Z,1.2267
2023-05-11T01:22:27.765Z,1.0713
2023-05-11T01:23:35.759Z,1.3422
2023-05-11T01:24:43.897Z,1.2881
2023-05-11T01:25:51.692Z,1.3311
2023-05-11T01:26:59.750Z,1.0810
2023-05-11T01:28:07.846Z,1.2162
2023-05-11T01:29:16.099Z,1.2961
2023-05-11T01:30:24.117Z,1.2629
2023-05-11T01:31:32.254Z,1.4793
2023-05-11T01:32:41.585Z,0.9847
2023-05-11T01:33:48.289Z,1.0855
2023-05-11T01:34:56.413Z,1.2069
2023-05-11T01:36:04.421Z,1.1930
2023-05-11T01:37:12.517Z,1.1903
2023-05-11T01:38:20.553Z,1.2198
2023-05-11T01:39:28.581Z,1.0646
2023-05-11T01:40:36.514Z,1.1944
2023-05-11T01:41:44.572Z,1.2376
2023-05-11T01:42:52.617Z,1.1621
2023-05-11T01:44:00.902Z,1.2230
2023-05-11T01:45:08.998Z,1.1024
2023-05-11T01:46:16.995Z,1.2605
2023-05-11T01:47:25.019Z,1.0424
2023-05-11T01:48:33.113Z,1.2907
2023-05-11T01:49:40.942Z,1.2307
2023-05-11T01:50:49.131Z,1.2871
2023-05-11T01:51:57.562Z,1.2932
2023-05-11T01:53:05.260Z,1.3682
2023-05-11T01:54:13.354Z,1.1583
2023-05-11T01:55:21.255Z,1.0311
2023-05-11T01:56:29.299Z,0.9412
2023-05-11T01:57:37.391Z,1.1902
2023-05-11T01:58:45.576Z,1.3172
2023-05-11T01:59:53.682Z,1.1854
2023-05-11T02:01:01.849Z,1.2071
2023-05-11T02:02:09.805Z,1.2509
2023-05-11T02:03:17.913Z,1.4759
2023-05-11T02:04:25.911Z,1.2018
2023-05-11T02:05:33.906Z,1.1418
2023-05-11T02:06:42.037Z,1.1880
2023-05-11T02:07:49.992Z,1.2790
2023-05-11T02:08:58.231Z,1.2413
2023-05-11T02:10:05.995Z,1.2457
2023-05-11T02:11:14.033Z,1.0347
2023-05-11T02:12:22.055Z,1.0876
2023-05-11T02:13:30.308Z,1.0980
2023-05-11T02:14:38.407Z,1.0617
2023-05-11T02:15:46.411Z,1.2980
2023-05-11T02:16:54.584Z,1.1959
2023-05-11T02:18:02.648Z,1.2880
2023-05-11T02:19:10.660Z,1.0328
2023-05-11T02:20:18.766Z,1.0189
2023-05-11T02:21:26.688Z,1.0558
2023-05-11T02:22:34.776Z,1.0105
2023-05-11T02:23:42.825Z,1.1985
2023-05-11T02:24:50.812Z,1.1327
2023-05-11T02:25:58.811Z,1.2218
2023-05-11T02:27:06.866Z,1.2097
2023-05-11T02:28:15.177Z,1.0108
2023-05-11T02:29:23.088Z,1.2449
2023-05-11T02:30:31.198Z,1.2881
2023-05-11T02:31:39.306Z,1.3654
2023-05-11T02:32:47.444Z,1.3595
2023-05-11T02:33:55.342Z,1.0605
2023-05-11T02:35:03.417Z,1.0607
2023-05-11T02:36:11.505Z,1.0997
2023-05-11T02:37:19.519Z,1.1953
2023-05-11T02:38:27.722Z,1.3920
2023-05-11T02:39:35.505Z,1.1905
2023-05-11T02:40:43.596Z,1.1172
2023-05-11T02:41:51.609Z,1.2631
2023-05-11T02:42:59.816Z,1.1939
2023-05-11T02:44:07.837Z,1.4611
2023-05-11T02:45:15.925Z,1.5322
2023-05-11T02:46:24.067Z,1.4185
2023-05-11T02:47:32.039Z,1.4505
2023-05-11T02:48:40.226Z,1.3553
2023-05-11T02:49:48.161Z,1.3490
2023-05-11T02:50:56.227Z,1.3314
2023-05-11T02:52:04.327Z,1.3396
2023-05-11T02:53:12.570Z,1.3431
2023-05-11T02:54:20.219Z,1.2315
2023-05-11T02:55:28.300Z,1.2170
2023-05-11T02:56:36.387Z,1.4255
2023-05-11T02:57:44.643Z,1.2821
2023-05-11T02:58:52.632Z,1.5346
2023-05-11T03:00:00.699Z,1.4077
2023-05-11T03:01:08.792Z,1.2879
2023-05-11T03:02:16.871Z,1.2328
2023-05-11T03:03:25.075Z,1.3087
2023-05-11T03:04:33.001Z,1.2701
2023-05-11T03:05:41.033Z,1.4717
2023-05-11T03:06:49.037Z,1.5500
2023-05-11T03:07:57.147Z,1.2811
2023-05-11T03:09:05.013Z,1.3456
2023-05-11T03:10:13.055Z,1.5287
2023-05-11T03:11:21.122Z,1.5064
2023-05-11T03:12:29.289Z,1.5804
2023-05-11T03:13:37.393Z,1.2665
2023-05-11T03:14:45.425Z,1.1757
2023-05-11T03:15:53.473Z,1.1466
2023-05-11T03:17:01.617Z,1.4616
2023-05-11T03:18:09.614Z,1.3564
2023-05-11T03:19:17.665Z,1.4596
2023-05-11T03:20:25.696Z,1.2673
2023-05-11T03:21:33.873Z,1.2478
2023-05-11T03:22:41.800Z,1.2184
2023-05-11T03:23:49.761Z,1.2548
2023-05-11T03:24:57.812Z,1.2216
2023-05-11T03:26:05.878Z,1.2950
2023-05-11T03:27:14.028Z,1.4020
2023-05-11T03:28:22.191Z,1.3286
2023-05-11T03:29:30.164Z,1.3055
2023-05-11T03:30:38.221Z,1.3673
2023-05-11T03:31:47.214Z,1.2242
2023-05-11T03:32:59.191Z,1.5319
2023-05-11T03:34:07.292Z,1.5188
2023-05-11T03:35:15.292Z,1.3782
2023-05-11T03:36:23.423Z,1.4764
2023-05-11T03:37:31.282Z,1.4135
2023-05-11T03:38:39.371Z,1.4824
2023-05-11T03:39:47.459Z,1.4688
2023-05-11T03:40:55.717Z,1.3370
2023-05-11T03:42:03.615Z,1.2357
2023-05-11T03:43:11.753Z,1.3367
2023-05-11T03:44:19.762Z,1.4314
2023-05-11T03:45:27.883Z,1.5228
2023-05-11T03:46:35.985Z,1.3752
2023-05-11T03:47:44.015Z,1.2661
2023-05-11T03:48:52.008Z,1.3280
2023-05-11T03:50:00.176Z,1.4409
2023-05-11T03:51:08.105Z,1.3156
2023-05-11T03:52:16.041Z,1.4963
2023-05-11T03:53:24.066Z,1.3666
2023-05-11T03:54:32.151Z,1.5517
2023-05-11T03:55:40.447Z,1.3822
2023-05-11T03:56:48.372Z,1.4974
2023-05-11T03:57:56.446Z,1.4204
2023-05-11T03:59:04.742Z,1.3723
2023-05-11T04:00:12.567Z,1.3468
2023-05-11T04:01:20.589Z,1.4212
2023-05-11T04:02:28.646Z,1.5139
2023-05-11T04:03:36.896Z,1.3253
2023-05-11T04:04:44.805Z,1.5636
2023-05-11T04:05:52.777Z,1.4054
2023-05-11T04:07:00.768Z,1.6050
2023-05-11T04:08:08.805Z,1.4954
2023-05-11T04:09:16.891Z,1.4555
2023-05-11T04:10:24.979Z,1.5632
2023-05-11T04:11:33.170Z,1.4248
2023-05-11T04:12:41.174Z,1.4426
2023-05-11T04:13:49.197Z,1.3228
2023-05-11T04:14:57.269Z,1.4228
2023-05-11T04:16:05.312Z,1.4066
2023-05-11T04:17:13.395Z,1.5430
2023-05-11T04:18:21.469Z,1.4614
2023-05-11T04:19:29.622Z,1.6516
2023-05-11T04:20:37.612Z,1.7469
2023-05-11T04:21:45.475Z,1.4600
2023-05-11T04:22:53.553Z,1.5454
2023-05-11T04:24:01.643Z,1.6095
2023-05-11T04:25:09.886Z,1.3973
2023-05-11T04:26:17.860Z,1.7722
2023-05-11T04:27:25.876Z,1.6606
2023-05-11T04:28:34.008Z,1.6872
2023-05-11T04:29:42.126Z,1.6337
2023-05-11T04:30:50.069Z,1.5473
2023-05-11T04:31:58.231Z,1.6019
2023-05-11T04:33:06.225Z,1.5540
2023-05-11T04:34:14.230Z,1.7067
2023-05-11T04:35:22.379Z,1.5344
2023-05-11T04:36:30.215Z,1.4480
2023-05-11T04:37:38.277Z,1.8052
2023-05-11T04:38:46.327Z,1.6889
2023-05-11T04:39:54.533Z,1.8622
2023-05-11T04:41:02.587Z,1.6243
2023-05-11T04:42:10.653Z,1.6695
2023-05-11T04:43:18.679Z,1.7313
2023-05-11T04:44:26.741Z,1.6753
2023-05-11T04:45:34.832Z,1.8672
2023-05-11T04:46:42.907Z,1.5539
2023-05-11T04:47:50.919Z,1.7322
2023-05-11T04:48:58.925Z,1.7136
2023-05-11T04:50:07.037Z,1.5690
2023-05-11T04:51:14.955Z,1.3485
2023-05-11T04:52:22.972Z,1.6004
2023-05-11T04:53:31.041Z,1.4686
2023-05-11T04:54:39.228Z,1.6111
2023-05-11T04:55:47.487Z,1.4858
2023-05-11T04:56:55.341Z,1.5629
2023-05-11T04:58:03.417Z,1.3218
2023-05-11T04:59:11.638Z,1.3115
2023-05-11T05:00:19.869Z,1.4392
2023-05-11T05:01:27.652Z,1.3501
2023-05-11T05:02:35.737Z,1.6159
2023-05-11T05:03:43.785Z,1.6521
2023-05-11T05:04:51.811Z,1.7072
2023-05-11T05:05:59.661Z,1.6564
2023-05-11T05:07:07.743Z,1.6907
2023-05-11T05:08:15.770Z,1.7164
2023-05-11T05:09:23.964Z,1.5508
2023-05-11T05:10:32.122Z,1.5923
2023-05-11T05:11:40.075Z,1.5186
2023-05-11T05:12:48.170Z,1.6251
2023-05-11T05:13:56.377Z,1.6105
2023-05-11T05:15:04.420Z,1.5170
2023-05-11T05:16:12.355Z,1.6923
2023-05-11T05:17:20.479Z,1.5890
2023-05-11T05:18:28.437Z,1.5896
2023-05-11T05:19:36.567Z,1.6374
2023-05-11T05:20:44.432Z,1.6260
2023-05-11T05:21:52.635Z,1.7045
2023-05-11T05:23:00.521Z,1.8412
2023-05-11T05:24:08.709Z,1.8382
2023-05-11T05:25:16.827Z,1.9237
2023-05-11T05:26:24.801Z,2.1855
2023-05-11T05:27:34.720Z,2.0201
2023-05-11T05:28:45.791Z,1.9180
2023-05-11T05:29:53.798Z,2.0559
2023-05-11T05:31:01.971Z,2.0486
2023-05-11T05:32:10.017Z,1.9522
2023-05-11T05:33:18.019Z,2.2017
2023-05-11T05:34:25.901Z,2.1698
2023-05-11T05:35:33.982Z,2.1642
2023-05-11T05:36:42.019Z,2.1507
2023-05-11T05:37:50.185Z,2.1001
2023-05-11T05:38:58.227Z,2.0357
2023-05-11T05:40:06.298Z,1.8682
2023-05-11T05:41:14.486Z,1.8596
2023-05-11T05:42:22.447Z,1.8447
2023-05-11T05:43:30.549Z,1.7269
2023-05-11T05:44:38.597Z,2.0846
2023-05-11T05:45:46.689Z,2.0400
2023-05-11T05:46:54.693Z,2.2525
2023-05-11T05:48:02.833Z,2.2954
2023-05-11T05:49:10.643Z,2.1464
2023-05-11T05:50:18.869Z,2.0084
2023-05-11T05:51:26.772Z,2.2861
2023-05-11T05:52:34.942Z,1.9532
2023-05-11T05:53:42.997Z,2.2007
2023-05-11T05:54:51.078Z,2.2025
2023-05-11T05:55:59.268Z,2.3584
2023-05-11T05:57:07.151Z,2.5562
2023-05-11T05:58:15.203Z,2.7261
2023-05-11T05:59:23.245Z,2.5581
2023-05-11T06:00:31.343Z,2.7509
2023-05-11T06:01:39.442Z,2.6207
2023-05-11T06:02:47.586Z,2.9037
2023-05-11T06:03:55.585Z,2.7791
2023-05-11T06:05:03.433Z,2.8465
2023-05-11T06:06:11.465Z,2.8094
2023-05-11T06:07:19.689Z,2.5526
2023-05-11T06:08:27.703Z,2.6048
2023-05-11T06:09:37.424Z,2.5981
2023-05-11T06:10:48.794Z,2.9348
2023-05-11T06:11:56.904Z,2.6887
2023-05-11T06:13:04.899Z,2.6370
2023-05-11T06:14:12.940Z,2.6489
2023-05-11T06:15:20.880Z,2.4782
2023-05-11T06:16:29.181Z,2.3696
2023-05-11T06:17:36.892Z,2.5132
2023-05-11T06:18:44.969Z,2.4768
2023-05-11T06:19:52.980Z,2.7745
2023-05-11T06:21:01.198Z,2.5632
2023-05-11T06:22:09.269Z,2.5696
2023-05-11T06:23:17.245Z,2.6411
2023-05-11T06:24:25.363Z,2.5759
2023-05-11T06:25:33.340Z,2.7158
2023-05-11T06:26:41.435Z,2.3854
2023-05-11T06:27:49.704Z,2.4257
2023-05-11T06:28:57.535Z,2.4352
2023-05-11T06:30:05.569Z,2.5325
2023-05-11T06:31:13.686Z,2.5856
2023-05-11T06:32:21.605Z,2.7382
2023-05-11T06:33:29.660Z,2.3336
2023-05-11T06:34:37.696Z,2.3914
2023-05-11T06:35:45.928Z,2.4861
2023-05-11T06:36:53.913Z,2.5937
2023-05-11T06:38:02.054Z,2.3654
2023-05-11T06:39:10.022Z,2.7536
2023-05-11T06:40:18.261Z,2.7537
2023-05-11T06:41:26.168Z,2.6675
2023-05-11T06:42:34.212Z,2.5788
2023-05-11T06:43:42.213Z,2.3825
2023-05-11T06:44:50.499Z,2.5194
2023-05-11T06:45:58.378Z,2.8563
2023-05-11T06:47:06.247Z,2.6207
2023-05-11T06:48:14.423Z,2.9735
2023-05-11T06:49:22.378Z,2.8221
2023-05-11T06:50:30.834Z,2.5876
2023-05-11T06:51:38.654Z,2.7605
2023-05-11T06:52:46.635Z,2.9553
2023-05-11T06:53:54.712Z,2.7673
2023-05-11T06:55:02.849Z,2.9656
2023-05-11T06:56:10.947Z,2.6657
2023-05-11T06:57:18.888Z,2.8172
2023-05-11T06:58:27.004Z,2.7011
2023-05-11T06:59:35.020Z,2.9381
2023-05-11T07:00:43.085Z,2.9232
2023-05-11T07:01:50.989Z,2.8717
2023-05-11T07:02:59.075Z,2.9904
2023-05-11T07:04:07.171Z,2.8894
2023-05-11T07:05:15.283Z,3.2172
2023-05-11T07:06:23.350Z,2.7689
2023-05-11T07:07:31.461Z,2.6088
2023-05-11T07:08:39.450Z,2.7918
2023-05-11T07:09:47.584Z,3.0955
2023-05-11T07:10:55.566Z,3.2251
2023-05-11T07:12:03.642Z,2.7719
2023-05-11T07:13:11.820Z,2.9627
2023-05-11T07:14:19.767Z,3.5124
2023-05-11T07:15:27.827Z,3.2108
2023-05-11T07:16:35.752Z,3.2395
2023-05-11T07:17:43.858Z,3.2529
2023-05-11T07:18:51.935Z,3.4471
2023-05-11T07:20:00.066Z,3.4930
2023-05-11T07:21:08.092Z,3.1981
2023-05-11T07:22:16.158Z,3.4102
2023-05-11T07:23:24.297Z,3.2261
2023-05-11T07:24:32.266Z,3.1539
2023-05-11T07:25:40.341Z,3.2930
2023-05-11T07:26:48.372Z,3.4322
2023-05-11T07:27:56.582Z,3.5033
2023-05-11T07:29:04.567Z,3.4580
2023-05-11T07:30:12.615Z,3.4528
2023-05-11T07:31:20.559Z,3.2982
2023-05-11T07:32:28.568Z,3.3291
2023-05-11T07:33:36.637Z,3.3854
2023-05-11T07:34:44.881Z,3.5724
2023-05-11T07:35:52.792Z,3.5297
2023-05-11T07:37:00.944Z,3.6630
2023-05-11T07:38:09.099Z,3.3056
2023-05-11T07:39:17.068Z,3.2762
2023-05-11T07:40:25.118Z,3.5605
2023-05-11T07:41:33.215Z,3.4681
2023-05-11T07:42:41.226Z,3.5791
2023-05-11T07:43:49.330Z,3.4252
2023-05-11T07:44:57.367Z,3.9878
2023-05-11T07:46:05.228Z,3.9367
2023-05-11T07:47:13.298Z,3.4746
2023-05-11T07:48:21.376Z,3.9592
2023-05-11T07:49:39.922Z,3.7745
2023-05-11T07:50:42.787Z,3.5886
2023-05-11T07:51:50.496Z,3.4406
2023-05-11T07:52:58.570Z,3.3797
2023-05-11T07:54:06.642Z,3.8298
2023-05-11T07:55:14.784Z,3.3192
2023-05-11T07:56:22.761Z,3.1754
2023-05-11T07:57:30.789Z,3.7031
2023-05-11T07:58:39.066Z,3.4853
2023-05-11T07:59:46.764Z,3.0389
2023-05-11T08:00:54.800Z,2.7734
2023-05-11T08:02:02.995Z,2.5728
2023-05-11T08:03:11.143Z,2.8327
2023-05-11T08:04:19.157Z,2.9507
2023-05-11T08:05:27.338Z,2.8121
2023-05-11T08:06:35.435Z,2.3731
2023-05-11T08:07:43.276Z,2.5002
2023-05-11T08:08:51.457Z,2.6509
2023-05-11T08:09:59.455Z,3.0311
2023-05-11T08:11:07.440Z,3.1219
2023-05-11T08:12:15.481Z,3.1299
2023-05-11T08:13:23.572Z,10.1205
2023-05-11T08:14:31.523Z,9.1742
2023-05-11T08:15:39.584Z,3.1407
2023-05-11T08:16:47.639Z,3.0328
2023-05-11T08:17:55.877Z,3.1006
2023-05-11T08:19:04.000Z,3.6165
2023-05-11T08:20:11.988Z,3.0672
2023-05-11T08:21:19.973Z,2.6580
2023-05-11T08:22:28.190Z,2.5146
2023-05-11T08:23:36.127Z,2.5735
2023-05-11T08:24:44.158Z,2.5073
2023-05-11T08:25:52.238Z,2.3891
2023-05-11T08:27:00.270Z,2.4373
2023-05-11T08:28:08.401Z,2.4871
2023-05-11T08:29:16.270Z,2.5323
2023-05-11T08:30:24.313Z,2.6891
2023-05-11T08:31:32.439Z,2.4442
2023-05-11T08:33:53.569Z,2.8297
2023-05-11T08:35:01.621Z,2.3608
2023-05-11T08:36:09.680Z,2.4968
2023-05-11T08:37:17.662Z,2.4971
2023-05-11T08:38:25.851Z,2.5186
2023-05-11T08:40:46.566Z,3.2288
2023-05-11T08:41:54.656Z,3.0876
2023-05-11T08:43:02.681Z,3.0904
2023-05-11T08:44:10.804Z,2.9354
2023-05-11T08:45:19.046Z,3.1383
2023-05-11T08:46:27.215Z,3.1042
2023-05-11T08:47:35.161Z,2.9217
2023-05-11T08:48:43.075Z,2.9143
2023-05-11T08:49:51.550Z,3.3200
2023-05-11T08:50:59.189Z,3.3505
2023-05-11T08:52:08.007Z,3.4434
2023-05-11T08:53:15.296Z,3.7457
2023-05-11T08:54:23.352Z,3.3804
2023-05-11T08:55:31.317Z,3.8121
2023-05-11T08:56:39.337Z,3.3340
2023-05-11T08:57:47.411Z,3.3923
2023-05-11T08:58:56.248Z,3.6968
2023-05-11T09:00:03.643Z,3.9103
2023-05-11T09:01:11.782Z,4.1369
2023-05-11T09:02:19.791Z,3.7042
2023-05-11T09:03:27.942Z,3.9275
2023-05-11T09:04:35.865Z,3.7606
2023-05-11T09:05:43.958Z,3.5474
2023-05-11T09:06:51.956Z,3.5188
2023-05-11T09:08:00.314Z,3.4415
2023-05-11T09:09:07.974Z,3.4605
2023-05-11T09:10:15.988Z,3.2760
2023-05-11T09:11:24.111Z,3.1812
2023-05-11T09:12:32.344Z,3.5203
2023-05-11T09:13:40.286Z,3.6439
2023-05-11T09:14:48.370Z,3.1811
2023-05-11T09:15:56.464Z,3.5251
2023-05-11T09:17:04.589Z,3.7037
2023-05-11T09:18:12.614Z,3.3061
2023-05-11T09:19:20.564Z,3.0019
2023-05-11T09:20:28.650Z,3.3219
2023-05-11T09:21:36.762Z,3.3240
2023-05-11T09:22:44.765Z,3.2474
2023-05-11T09:23:52.657Z,3.1060
2023-05-11T09:25:00.749Z,2.7904
2023-05-11T09:26:08.805Z,3.2777
2023-05-11T09:27:21.287Z,2.9606
2023-05-11T09:28:35.781Z,3.2518
2023-05-11T09:29:42.822Z,3.1885
2023-05-11T09:30:50.927Z,2.9718
2023-05-11T09:31:58.895Z,3.2103
2023-05-11T09:33:06.957Z,3.1184
2023-05-11T09:34:15.015Z,3.1727
2023-05-11T09:35:23.070Z,3.3440
2023-05-11T09:36:31.270Z,3.0287
2023-05-11T09:37:39.038Z,2.9179
2023-05-11T09:38:47.118Z,2.9081
2023-05-11T09:40:25.118Z,3.3750
2023-05-11T09:41:08.250Z,3.2326
2023-05-11T09:42:16.283Z,3.4100
2023-05-11T09:43:24.306Z,3.4498
2023-05-11T09:44:32.510Z,3.3818
2023-05-11T09:45:40.436Z,3.3247
2023-05-11T09:46:48.570Z,3.0376
2023-05-11T09:47:56.578Z,3.0294
2023-05-11T09:49:04.619Z,3.3167
2023-05-11T09:50:12.764Z,3.2326
2023-05-11T09:51:20.653Z,2.9102
2023-05-11T09:52:28.766Z,2.5294
2023-05-11T09:53:36.769Z,1.9157
2023-05-11T09:54:44.943Z,1.5857
2023-05-11T09:55:53.038Z,1.8112
2023-05-11T09:57:01.132Z,1.9369
2023-05-11T09:58:09.130Z,1.7598
2023-05-11T09:59:17.189Z,2.1058
2023-05-11T10:00:25.098Z,2.2340
2023-05-11T10:01:33.368Z,2.6298
2023-05-11T10:02:41.481Z,2.8144
2023-05-11T10:03:49.509Z,2.5118
2023-05-11T10:04:57.465Z,2.4166
2023-05-11T10:06:05.381Z,2.3703
2023-05-11T10:07:13.447Z,2.4298
2023-05-11T10:08:21.460Z,2.2179
2023-05-11T10:09:29.687Z,2.2739
2023-05-11T10:10:37.831Z,2.2385
2023-05-11T10:11:45.754Z,2.0773
2023-05-11T10:12:53.930Z,2.4561
2023-05-11T10:14:01.832Z,2.7061
2023-05-11T10:15:09.897Z,2.4897
2023-05-11T10:16:18.079Z,2.8146
2023-05-11T10:17:26.086Z,3.1152
2023-05-11T10:18:34.237Z,2.7396
2023-05-11T10:19:42.198Z,2.4835
2023-05-11T10:20:50.237Z,2.5990
2023-05-11T10:21:58.157Z,3.0065
2023-05-11T10:23:06.226Z,2.5677
2023-05-11T10:24:14.337Z,3.2007
2023-05-11T10:25:22.457Z,2.9962
2023-05-11T10:26:30.590Z,2.4133
2023-05-11T10:27:38.694Z,2.4524
2023-05-11T10:28:46.619Z,2.0843
2023-05-11T10:29:54.734Z,1.7736
2023-05-11T10:31:02.784Z,1.5646
2023-05-11T10:32:10.981Z,1.5159
2023-05-11T10:33:18.984Z,1.5101
2023-05-11T10:34:26.950Z,1.2940
2023-05-11T10:35:34.989Z,1.1680
2023-05-11T10:36:42.917Z,1.1768
2023-05-11T10:37:50.977Z,1.0761
2023-05-11T10:38:59.007Z,0.9863
2023-05-11T10:40:07.185Z,0.9091
2023-05-11T10:41:15.263Z,1.0898
2023-05-11T10:42:23.443Z,1.0279
2023-05-11T10:43:31.401Z,1.1471
2023-05-11T10:44:39.422Z,1.0375
2023-05-11T10:45:47.516Z,1.0298
2023-05-11T10:46:55.736Z,1.2652
2023-05-11T10:48:03.648Z,1.0623
2023-05-11T10:49:11.647Z,1.0196
2023-05-11T10:50:20.206Z,1.0141
2023-05-11T10:51:27.619Z,1.2532
2023-05-11T10:52:35.800Z,1.0935
2023-05-11T10:53:43.756Z,1.0730
2023-05-11T10:54:51.911Z,1.0056
2023-05-11T10:55:59.988Z,0.9061
2023-05-11T10:57:08.027Z,0.8943
2023-05-11T10:58:16.233Z,1.2124
2023-05-11T10:59:24.214Z,0.9529
2023-05-11T11:00:32.234Z,1.0629
2023-05-11T11:01:40.313Z,0.9943
2023-05-11T11:02:48.470Z,0.8944
2023-05-11T11:03:56.545Z,0.8203
2023-05-11T11:05:04.467Z,0.8367
2023-05-11T11:06:12.432Z,0.8937
2023-05-11T11:07:20.435Z,0.9364
2023-05-11T11:08:28.506Z,1.0099
2023-05-11T11:09:36.806Z,1.0843
2023-05-11T11:10:44.733Z,1.0335
2023-05-11T11:11:52.795Z,1.0199
2023-05-11T11:13:00.852Z,1.0516
2023-05-11T11:14:08.964Z,1.2941
2023-05-11T11:15:17.066Z,1.2328
2023-05-11T11:16:25.071Z,1.2517
2023-05-11T11:17:33.112Z,1.4621
2023-05-11T11:18:41.221Z,1.4386
2023-05-11T11:19:49.265Z,1.3766
2023-05-11T11:20:57.189Z,1.5852
2023-05-11T11:22:05.198Z,1.5861
2023-05-11T11:23:13.279Z,1.6024
2023-05-11T11:24:21.390Z,1.5821
2023-05-11T11:25:29.564Z,1.4251
2023-05-11T11:26:37.582Z,1.4897
2023-05-11T11:27:46.011Z,1.4563
2023-05-11T11:28:53.685Z,1.5178
2023-05-11T11:30:01.863Z,1.4244
2023-05-11T11:31:09.919Z,1.2865
2023-05-11T11:32:17.836Z,1.1418
2023-05-11T11:33:25.904Z,1.1485
2023-05-11T11:34:34.013Z,1.2904
2023-05-11T11:35:42.176Z,1.5325
2023-05-11T11:36:50.005Z,1.3563
2023-05-11T11:37:57.995Z,1.2801
2023-05-11T11:39:06.316Z,1.2180
2023-05-11T11:40:15.728Z,1.3208
2023-05-11T11:41:22.320Z,1.2288
2023-05-11T11:42:30.425Z,1.2703
2023-05-11T11:43:38.428Z,1.2188
2023-05-11T11:44:46.495Z,1.5060
2023-05-11T11:45:54.672Z,1.7113
2023-05-11T11:47:02.703Z,1.5835
2023-05-11T11:48:10.827Z,1.8755
2023-05-11T11:49:18.697Z,1.6669
2023-05-11T11:50:26.731Z,1.6769
2023-05-11T11:51:34.682Z,1.4332
2023-05-11T11:52:42.766Z,1.7716
2023-05-11T11:53:51.001Z,1.7265
2023-05-11T11:54:59.157Z,1.6135
2023-05-11T11:56:07.098Z,1.5872
2023-05-11T11:57:15.116Z,1.5074
2023-05-11T11:58:23.173Z,1.5225
2023-05-11T11:59:31.295Z,1.4803
2023-05-11T12:00:39.289Z,1.4635
2023-05-11T12:01:47.496Z,1.3713
2023-05-11T12:02:55.354Z,1.3598
2023-05-11T12:04:03.627Z,1.2582
2023-05-11T12:05:11.621Z,1.5027
2023-05-11T12:06:19.484Z,1.6613
2023-05-11T12:07:27.529Z,1.5759
2023-05-11T12:08:35.691Z,1.2467
2023-05-11T12:09:43.809Z,1.3632
2023-05-11T12:10:51.972Z,1.3974
2023-05-11T12:11:59.889Z,1.3322
2023-05-11T12:13:07.941Z,1.3651
2023-05-11T12:14:15.976Z,1.6444
2023-05-11T12:15:24.011Z,1.5801
2023-05-11T12:16:32.148Z,1.2993
2023-05-11T12:17:40.132Z,1.4677
2023-05-11T12:18:48.400Z,1.5320
2023-05-11T12:19:56.131Z,1.7091
2023-05-11T12:21:04.204Z,1.6145
2023-05-11T12:22:12.294Z,1.4714
2023-05-11T12:23:20.418Z,1.7358
2023-05-11T12:24:28.548Z,1.6526
2023-05-11T12:25:36.573Z,1.4719
2023-05-11T12:26:44.478Z,1.5040
2023-05-11T12:27:52.876Z,1.3345
2023-05-11T12:29:00.744Z,1.2697
2023-05-11T12:30:08.819Z,1.5073
2023-05-11T12:31:16.902Z,1.4072
2023-05-11T12:32:24.889Z,1.3129
2023-05-11T12:33:33.047Z,1.6258
2023-05-11T12:34:41.026Z,1.7929
2023-05-11T12:35:49.406Z,1.6026
2023-05-11T12:36:59.047Z,1.8345
2023-05-11T12:38:09.933Z,1.8120
2023-05-11T12:39:18.203Z,1.7149
2023-05-11T12:40:26.384Z,1.6350
2023-05-11T12:41:34.281Z,1.6007
2023-05-11T12:42:42.348Z,1.5905
2023-05-11T12:43:50.411Z,1.7523
2023-05-11T12:44:58.529Z,1.5818
2023-05-11T12:46:06.596Z,1.4685
2023-05-11T12:47:14.620Z,1.7702
2023-05-11T12:48:22.618Z,1.4326
2023-05-11T12:49:30.688Z,1.1822
2023-05-11T12:50:38.662Z,1.1772
2023-05-11T12:51:46.741Z,1.4197
2023-05-11T12:52:54.732Z,2.1961
2023-05-11T12:54:02.986Z,1.8835
2023-05-11T12:55:11.252Z,2.1035
2023-05-11T12:56:19.103Z,1.6683
2023-05-11T12:57:27.105Z,1.6547
2023-05-11T12:58:35.153Z,1.7903
2023-05-11T12:59:43.476Z,4.9973
2023-05-11T13:00:51.308Z,2.9458
2023-05-11T13:01:59.482Z,1.9650
2023-05-11T13:03:07.460Z,1.4367
2023-05-11T13:04:15.443Z,1.6809
2023-05-11T13:05:23.403Z,1.4657
2023-05-11T13:06:31.447Z,1.6354
2023-05-11T13:07:39.579Z,1.4170
2023-05-11T13:08:47.753Z,1.7756
2023-05-11T13:09:55.910Z,1.4908
2023-05-11T13:11:03.845Z,1.4007
2023-05-11T13:12:11.912Z,1.5392
2023-05-11T13:13:20.019Z,1.2800
2023-05-11T13:14:28.122Z,1.2689
2023-05-11T13:15:36.059Z,1.2968
2023-05-11T13:16:44.104Z,1.3206
2023-05-11T13:17:52.192Z,1.3448
2023-05-11T13:19:00.420Z,1.3564
2023-05-11T13:20:08.194Z,1.4611
2023-05-11T13:21:16.213Z,1.4309
2023-05-11T13:22:24.281Z,1.3878
2023-05-11T13:23:32.463Z,1.4412
2023-05-11T13:24:40.574Z,1.4254
2023-05-11T13:25:48.579Z,1.4260
2023-05-11T13:26:56.875Z,1.3347
2023-05-11T13:28:04.697Z,1.3611
2023-05-11T13:29:12.777Z,1.4368
2023-05-11T13:30:21.102Z,1.4886
2023-05-11T13:31:29.039Z,1.5976
2023-05-11T13:32:36.973Z,1.5718
2023-05-11T13:33:45.021Z,1.8141
2023-05-11T13:34:52.879Z,1.8489
2023-05-11T13:36:01.011Z,1.6644
2023-05-11T13:37:09.035Z,1.5726
2023-05-11T13:38:17.202Z,1.6451
2023-05-11T13:39:25.298Z,1.6966
2023-05-11T13:40:33.346Z,1.5395
2023-05-11T13:41:41.430Z,1.6882
2023-05-11T13:42:49.421Z,1.6853
2023-05-11T13:43:57.497Z,1.6307
2023-05-11T13:45:05.602Z,1.6517
2023-05-11T13:46:13.605Z,1.5726
2023-05-11T13:47:21.801Z,1.7673
2023-05-11T13:48:29.716Z,1.6330
2023-05-11T13:49:37.656Z,1.7523
2023-05-11T13:50:45.701Z,1.3380
2023-05-11T13:51:53.762Z,1.6081
2023-05-11T13:53:02.000Z,1.4785
2023-05-11T13:54:10.006Z,1.4848
2023-05-11T13:55:18.190Z,1.6624
2023-05-11T13:56:26.128Z,1.4549
2023-05-11T13:57:34.206Z,1.4043
2023-05-11T13:58:42.360Z,1.3911
2023-05-11T13:59:50.377Z,1.4704
2023-05-11T14:02:11.288Z,1.6188
2023-05-11T14:03:19.364Z,1.4718
2023-05-11T14:04:27.360Z,1.5438
2023-05-11T14:05:36.855Z,1.7052
2023-05-11T14:06:48.456Z,1.3077
2023-05-11T14:07:56.633Z,1.5661
2023-05-11T14:09:04.551Z,1.5233
2023-05-11T14:10:12.656Z,1.7816
2023-05-11T14:11:20.689Z,1.5601
2023-05-11T14:12:28.715Z,1.5606
2023-05-11T14:13:36.805Z,1.5931